createdAt,value
2022-08-14T00:00:50.284Z,100583.63
2022-08-14T00:03:40.515Z,100496.38
2022-08-14T00:06:29.387Z,100502.56
2022-08-14T00:09:16.812Z,100565.13
2022-08-14T00:12:06.828Z,100568.88
2022-08-14T00:15:18.950Z,100593.81
2022-08-14T00:18:08.204Z,100598.50
2022-08-14T00:21:02.897Z,100508.16
2022-08-14T00:23:54.084Z,100585.63
2022-08-14T00:26:41.463Z,100497.91
2022-08-14T00:29:32.922Z,100582.34
2022-08-14T00:32:51.868Z,100580.31
2022-08-14T00:36:33.970Z,100579.06
2022-08-14T00:38:42.465Z,100426.66
2022-08-14T00:41:32.326Z,100571.59
2022-08-14T00:44:21.507Z,100469.31
2022-08-14T00:47:19.754Z,100568.25
2022-08-14T00:50:09.647Z,100557.38
2022-08-14T00:53:06.709Z,100559.81
2022-08-14T00:55:59.500Z,100487.09
2022-08-14T00:58:48.555Z,100366.09
2022-08-14T01:01:36.996Z,100473.94
2022-08-14T01:04:38.432Z,100548.72
2022-08-14T01:07:38.604Z,100327.28
2022-08-14T01:10:48.086Z,100459.53
2022-08-14T01:13:42.542Z,100529.66
2022-08-14T01:16:31.638Z,100523.00
2022-08-14T01:19:37.748Z,100527.25
2022-08-14T01:22:26.644Z,100495.50
2022-08-14T01:25:15.894Z,100459.25
2022-08-14T01:28:04.469Z,100508.69
2022-08-14T01:30:59.426Z,100435.75
2022-08-14T01:33:59.710Z,100469.88
2022-08-14T01:36:57.221Z,100374.56
2022-08-14T01:39:44.886Z,100443.13
2022-08-14T01:42:36.068Z,100480.94
2022-08-14T01:45:25.470Z,100484.38
2022-08-14T01:48:16.202Z,100456.72
2022-08-14T01:51:19.127Z,100483.13
2022-08-14T01:54:14.273Z,100455.34
2022-08-14T01:57:02.354Z,100199.97
2022-08-14T01:59:56.947Z,100343.00
2022-08-14T02:02:46.603Z,100399.75
2022-08-14T02:05:35.534Z,100477.75
2022-08-14T02:08:35.336Z,100473.00
2022-08-14T02:11:24.576Z,100483.19
2022-08-14T02:14:14.141Z,100480.56
2022-08-14T02:17:02.091Z,100461.59
2022-08-14T02:19:50.536Z,100369.13
2022-08-14T02:22:47.727Z,100454.00
2022-08-14T02:25:35.967Z,100391.22
2022-08-14T02:28:56.280Z,100477.44
2022-08-14T02:31:42.238Z,100404.88
2022-08-14T02:34:33.625Z,100482.31
2022-08-14T02:37:23.595Z,100421.63
2022-08-14T02:40:32.214Z,100412.88
2022-08-14T02:43:22.602Z,100451.88
2022-08-14T02:46:11.303Z,100466.00
2022-08-14T02:49:06.177Z,100476.84
2022-08-14T02:51:56.272Z,100476.09
2022-08-14T02:54:44.220Z,100468.22
2022-08-14T02:57:40.196Z,100493.47
2022-08-14T03:00:28.424Z,100421.72
2022-08-14T03:03:17.281Z,100478.53
2022-08-14T03:06:05.813Z,100476.97
2022-08-14T03:08:54.278Z,100470.84
2022-08-14T03:11:45.022Z,100463.63
2022-08-14T03:14:36.641Z,100364.91
2022-08-14T03:17:24.265Z,100369.16
2022-08-14T03:20:13.332Z,100456.47
2022-08-14T03:23:02.990Z,100075.47
2022-08-14T03:25:51.629Z,100435.50
2022-08-14T03:28:41.321Z,100368.50
2022-08-14T03:31:30.134Z,100458.09
2022-08-14T03:34:24.759Z,100459.44
2022-08-14T03:37:51.008Z,100351.22
2022-08-14T03:40:34.025Z,100365.56
2022-08-14T03:43:21.628Z,100410.88
2022-08-14T03:46:51.994Z,100421.25
2022-08-14T03:49:24.211Z,100443.75
2022-08-14T03:52:37.763Z,100413.13
2022-08-14T03:55:23.164Z,100352.88
2022-08-14T03:58:11.149Z,100431.13
2022-08-14T04:01:12.604Z,100427.63
2022-08-14T04:04:02.614Z,100441.78
2022-08-14T04:06:51.424Z,100370.41
2022-08-14T04:09:40.058Z,100439.41
2022-08-14T04:12:28.099Z,100345.75
2022-08-14T04:15:15.634Z,100355.03
2022-08-14T04:18:08.491Z,100413.72
2022-08-14T04:20:59.388Z,100449.84
2022-08-14T04:23:56.915Z,100378.75
2022-08-14T04:26:45.377Z,100381.94
2022-08-14T04:29:39.601Z,100448.81
2022-08-14T04:32:58.815Z,100272.63
2022-08-14T04:35:55.540Z,100406.25
2022-08-14T04:39:03.303Z,100233.34
2022-08-14T04:42:14.153Z,100329.25
2022-08-14T04:45:01.693Z,100326.03
2022-08-14T04:48:09.996Z,100351.44
2022-08-14T04:50:58.057Z,100370.28
2022-08-14T04:53:48.212Z,100414.44
2022-08-14T04:56:35.637Z,100410.13
2022-08-14T04:59:24.014Z,100411.13
2022-08-14T05:02:11.731Z,100331.66
2022-08-14T05:04:59.218Z,100327.28
2022-08-14T05:08:01.255Z,100360.91
2022-08-14T05:10:54.671Z,100427.97
2022-08-14T05:16:52.146Z,100425.13
2022-08-14T05:19:44.733Z,100416.53
2022-08-14T05:22:52.052Z,100412.22
2022-08-14T05:25:43.712Z,100340.56
2022-08-14T05:28:33.472Z,100403.78
2022-08-14T05:31:21.327Z,100404.16
2022-08-14T05:34:09.751Z,100381.16
2022-08-14T05:37:02.479Z,100332.81
2022-08-14T05:39:50.593Z,100359.97
2022-08-14T05:42:37.968Z,100361.63
2022-08-14T05:45:25.619Z,100348.25
2022-08-14T05:48:32.675Z,100281.44
2022-08-14T05:51:22.143Z,100353.31
2022-08-14T05:54:26.540Z,100333.69
2022-08-14T05:57:14.984Z,100384.19
2022-08-14T06:00:02.997Z,100322.03
2022-08-14T06:02:51.501Z,100354.13
2022-08-14T06:05:40.370Z,100378.00
2022-08-14T06:08:36.327Z,100277.53
2022-08-14T06:11:30.928Z,100283.41
2022-08-14T06:14:21.392Z,100273.81
2022-08-14T06:17:11.074Z,100367.16
2022-08-14T06:20:14.485Z,100357.13
2022-08-14T06:23:01.988Z,100284.03
2022-08-14T06:25:51.984Z,100380.97
2022-08-14T06:28:41.024Z,100299.13
2022-08-14T06:31:33.587Z,100368.03
2022-08-14T06:35:03.612Z,100326.38
2022-08-14T06:37:28.391Z,100376.06
2022-08-14T06:40:27.399Z,100346.94
2022-08-14T06:43:17.059Z,100333.59
2022-08-14T06:46:04.611Z,100358.38
2022-08-14T06:49:00.345Z,100258.38
2022-08-14T06:51:47.702Z,100354.81
2022-08-14T06:54:37.298Z,100348.53
2022-08-14T06:57:25.083Z,100353.34
2022-08-14T07:00:40.259Z,100249.31
2022-08-14T07:03:52.571Z,100348.72
2022-08-14T07:06:46.557Z,100198.19
2022-08-14T07:09:43.897Z,100339.66
2022-08-14T07:13:01.274Z,100291.09
2022-08-14T07:15:49.087Z,100229.00
2022-08-14T07:18:42.526Z,100327.47
2022-08-14T07:21:30.247Z,100246.72
2022-08-14T07:24:21.437Z,100301.25
2022-08-14T07:27:13.917Z,100323.66
2022-08-14T07:30:09.028Z,100275.38
2022-08-14T07:32:56.505Z,100306.66
2022-08-14T07:35:57.733Z,100312.56
2022-08-14T07:38:45.383Z,100222.22
2022-08-14T07:41:39.914Z,100251.34
2022-08-14T07:44:35.921Z,100200.94
2022-08-14T07:47:33.111Z,100291.47
2022-08-14T07:50:21.087Z,100307.94
2022-08-14T07:53:10.413Z,100294.59
2022-08-14T07:56:00.280Z,100312.63
2022-08-14T07:58:58.510Z,100154.19
2022-08-14T08:01:48.299Z,100312.22
2022-08-14T08:04:43.826Z,100267.72
2022-08-14T08:07:32.139Z,100287.66
2022-08-14T08:11:01.977Z,100290.28
2022-08-14T08:13:41.875Z,100307.84
2022-08-14T08:16:38.232Z,100185.88
2022-08-14T08:19:26.174Z,100131.94
2022-08-14T08:22:27.370Z,100009.44
2022-08-14T08:25:20.329Z,100213.94
2022-08-14T08:28:25.093Z,100241.25
2022-08-14T08:31:13.878Z,100260.41
2022-08-14T08:34:06.378Z,100271.72
2022-08-14T08:36:53.837Z,100237.75
2022-08-14T08:40:03.305Z,100212.03
2022-08-14T08:42:53.310Z,100268.56
2022-08-14T08:45:44.495Z,100307.31
2022-08-14T08:48:53.767Z,100287.53
2022-08-14T08:51:43.167Z,100212.25
2022-08-14T08:54:31.648Z,100033.69
2022-08-14T08:57:21.515Z,99954.25
2022-08-14T09:00:24.242Z,99976.88
2022-08-14T09:03:20.639Z,100230.78
2022-08-14T09:07:00.805Z,100049.25
2022-08-14T09:09:34.068Z,100241.47
2022-08-14T09:12:41.273Z,100205.53
2022-08-14T09:15:36.614Z,100250.97
2022-08-14T09:18:30.003Z,100218.28
2022-08-14T09:21:18.630Z,100198.88
2022-08-14T09:24:26.935Z,100248.88
2022-08-14T09:27:22.715Z,100210.94
2022-08-14T09:30:12.935Z,100102.28
2022-08-14T09:33:56.351Z,100239.53
2022-08-14T09:37:04.042Z,100097.13
2022-08-14T09:40:09.999Z,100076.31
2022-08-14T09:43:24.575Z,100134.94
2022-08-14T09:46:16.972Z,100223.03
2022-08-14T09:50:05.999Z,100220.22
2022-08-14T09:53:02.970Z,100100.44
2022-08-14T09:55:59.791Z,100165.84
2022-08-14T09:58:47.683Z,100203.25
2022-08-14T10:01:40.359Z,100223.69
2022-08-14T10:04:33.649Z,100146.06
2022-08-14T10:07:31.590Z,100209.78
2022-08-14T10:10:34.432Z,100131.50
2022-08-14T10:13:24.674Z,100203.94
2022-08-14T10:16:25.770Z,100132.38
2022-08-14T10:19:16.949Z,100090.69
2022-08-14T10:23:11.249Z,100188.53
2022-08-14T10:25:18.432Z,100086.16
2022-08-14T10:28:06.269Z,100188.78
2022-08-14T10:31:26.914Z,100182.25
2022-08-14T10:34:21.191Z,100135.19
2022-08-14T10:37:23.617Z,100009.66
2022-08-14T10:40:38.804Z,99844.97
2022-08-14T10:43:32.078Z,99795.81
2022-08-14T10:47:37.332Z,100136.91
2022-08-14T10:49:27.504Z,100155.88
2022-08-14T10:52:24.825Z,100056.53
2022-08-14T10:55:15.619Z,100148.06
2022-08-14T10:58:02.934Z,100104.03
2022-08-14T11:00:58.349Z,100153.84
2022-08-14T11:03:55.902Z,100144.84
2022-08-14T11:06:52.984Z,100163.00
2022-08-14T11:09:41.786Z,99894.44
2022-08-14T11:12:48.007Z,100146.66
2022-08-14T11:15:36.769Z,100148.34
2022-08-14T11:18:32.059Z,100021.31
2022-08-14T11:21:23.328Z,100143.56
2022-08-14T11:24:54.181Z,100123.97
2022-08-14T11:27:25.736Z,100090.84
2022-08-14T11:30:51.144Z,100082.91
2022-08-14T11:33:32.728Z,100104.81
2022-08-14T11:36:56.886Z,100122.28
2022-08-14T11:39:37.010Z,99901.19
2022-08-14T11:42:57.848Z,99940.88
2022-08-14T11:45:37.430Z,100018.91
2022-08-14T11:49:03.870Z,100097.06
2022-08-14T11:51:42.872Z,100006.03
2022-08-14T11:54:42.703Z,100097.38
2022-08-14T11:57:30.541Z,99772.78
2022-08-14T12:00:19.695Z,100081.78
2022-08-14T12:03:07.513Z,99837.91
2022-08-14T12:06:28.514Z,100083.38
2022-08-14T12:09:36.668Z,100070.13
2022-08-14T12:12:35.568Z,100026.97
2022-08-14T12:15:35.992Z,100063.91
2022-08-14T12:18:43.471Z,100061.28
2022-08-14T12:21:32.384Z,99711.66
2022-08-14T12:24:35.725Z,99694.25
2022-08-14T12:27:25.309Z,100043.25
2022-08-14T12:30:42.437Z,100033.47
2022-08-14T12:33:33.958Z,99975.28
2022-08-14T12:36:22.227Z,99902.91
2022-08-14T12:39:23.901Z,99836.31
2022-08-14T12:42:27.193Z,99705.00
2022-08-14T12:45:32.843Z,99758.03
2022-08-14T12:48:31.511Z,99765.56
2022-08-14T12:51:21.832Z,99992.47
2022-08-14T12:54:27.416Z,99621.06
2022-08-14T12:57:20.165Z,99896.88
2022-08-14T13:00:23.049Z,99924.19
2022-08-14T13:03:24.009Z,99946.44
2022-08-14T13:06:14.995Z,99914.91
2022-08-14T13:09:04.724Z,99941.84
2022-08-14T13:12:31.959Z,99979.22
2022-08-14T13:15:12.315Z,99960.91
2022-08-14T13:18:04.837Z,99714.72
2022-08-14T13:21:01.025Z,99803.91
2022-08-14T13:23:49.842Z,99833.41
2022-08-14T13:26:37.390Z,99778.88
2022-08-14T13:29:31.947Z,99954.63
2022-08-14T13:32:20.562Z,99766.63
2022-08-14T13:35:12.147Z,99923.44
2022-08-14T13:38:04.080Z,99662.09
2022-08-14T13:40:56.029Z,99947.81
2022-08-14T13:43:49.294Z,99605.56
2022-08-14T13:46:48.681Z,99937.72
2022-08-14T13:49:57.125Z,99658.22
2022-08-14T13:52:56.761Z,99738.41
2022-08-14T13:55:44.482Z,99916.97
2022-08-14T13:58:39.875Z,99720.38
2022-08-14T14:04:51.500Z,99883.41
2022-08-14T14:07:43.443Z,99884.75
2022-08-14T14:10:33.240Z,99749.59
2022-08-14T14:13:22.179Z,99905.13
2022-08-14T14:16:12.023Z,99897.00
2022-08-14T14:19:09.570Z,99909.50
2022-08-14T14:21:57.969Z,99871.75
2022-08-14T14:24:46.609Z,99835.41
2022-08-14T14:27:40.839Z,99490.22
2022-08-14T14:30:52.967Z,99892.09
2022-08-14T14:33:46.851Z,99817.66
2022-08-14T14:36:36.516Z,99895.06
2022-08-14T14:39:26.800Z,99888.97
2022-08-14T14:42:18.294Z,99858.16
2022-08-14T14:45:15.497Z,99853.19
2022-08-14T14:48:06.525Z,99894.75
2022-08-14T14:50:53.849Z,99864.22
2022-08-14T14:53:42.574Z,99857.28
2022-08-14T14:56:47.698Z,99820.38
2022-08-14T14:59:38.771Z,99849.16
2022-08-14T15:02:32.315Z,99870.59
2022-08-14T15:05:22.235Z,99577.88
2022-08-14T15:08:10.970Z,99655.97
2022-08-14T15:11:05.460Z,99867.78
2022-08-14T15:14:01.585Z,99519.22
2022-08-14T15:17:08.969Z,99841.34
2022-08-14T15:19:58.177Z,99842.13
2022-08-14T15:22:51.366Z,99826.91
2022-08-14T15:25:40.259Z,99861.13
2022-08-14T15:28:27.683Z,99843.63
2022-08-14T15:31:26.927Z,99860.38
2022-08-14T15:34:45.103Z,99711.09
2022-08-14T15:37:32.621Z,99767.50
2022-08-14T15:40:22.730Z,99664.00
2022-08-14T15:43:13.007Z,99842.91
2022-08-14T15:46:02.550Z,99835.91
2022-08-14T15:48:53.790Z,99775.13
2022-08-14T15:51:44.004Z,99825.78
2022-08-14T15:54:32.642Z,99629.16
2022-08-14T15:57:21.279Z,99836.69
2022-08-14T16:00:43.881Z,99777.22
2022-08-14T16:03:40.854Z,99784.06
2022-08-14T16:06:31.076Z,99656.13
2022-08-14T16:09:18.530Z,99822.72
2022-08-14T16:12:09.015Z,99823.22
2022-08-14T16:14:57.461Z,99816.69
2022-08-14T16:17:46.993Z,99472.81
2022-08-14T16:20:42.384Z,99709.97
2022-08-14T16:23:36.128Z,99811.66
2022-08-14T16:26:29.809Z,99809.28
2022-08-14T16:29:20.721Z,99710.72
2022-08-14T16:32:33.263Z,99809.66
2022-08-14T16:35:18.179Z,99693.41
2022-08-14T16:38:19.665Z,99716.31
2022-08-14T16:41:17.184Z,99787.59
2022-08-14T16:44:21.891Z,99756.66
2022-08-14T16:47:22.650Z,99566.38
2022-08-14T16:50:11.804Z,99795.59
2022-08-14T16:53:04.227Z,99744.38
2022-08-14T16:56:23.114Z,99713.06
2022-08-14T16:59:17.143Z,99605.78
2022-08-14T17:02:06.663Z,99691.63
2022-08-14T17:05:21.275Z,99731.72
2022-08-14T17:08:33.108Z,99684.03
2022-08-14T17:11:17.483Z,99781.06
2022-08-14T17:14:10.144Z,99653.34
2022-08-14T17:16:59.532Z,99776.06
2022-08-14T17:19:47.937Z,99606.66
2022-08-14T17:22:43.523Z,99784.69
2022-08-14T17:28:52.304Z,99685.66
2022-08-14T17:31:57.854Z,99569.94
2022-08-14T17:34:51.819Z,99592.97
2022-08-14T17:37:44.987Z,99697.13
2022-08-14T17:40:33.237Z,99763.88
2022-08-14T17:43:41.189Z,99778.44
2022-08-14T17:46:43.939Z,99471.75
2022-08-14T17:49:42.492Z,99509.06
2022-08-14T17:52:36.531Z,99668.91
2022-08-14T17:56:03.188Z,99772.91
2022-08-14T17:58:38.690Z,99338.94
2022-08-14T18:01:31.394Z,99746.81
2022-08-14T18:04:28.539Z,99742.00
2022-08-14T18:07:50.435Z,99324.34
2022-08-14T18:10:52.306Z,99506.88
2022-08-14T18:13:51.712Z,99560.06
2022-08-14T18:16:47.722Z,99777.56
2022-08-14T18:19:41.660Z,99575.75
2022-08-14T18:22:37.820Z,99237.06
2022-08-14T18:25:29.268Z,99674.84
2022-08-14T18:28:48.259Z,99576.56
2022-08-14T18:31:41.961Z,99781.63
2022-08-14T18:34:50.772Z,99656.53
2022-08-14T18:37:39.643Z,99228.28
2022-08-14T18:40:34.766Z,99253.66
2022-08-14T18:43:44.456Z,99782.97
2022-08-14T20:14:37.611Z,99399.91
2022-08-14T20:17:27.661Z,99696.84
2022-08-14T20:20:24.383Z,99796.75
2022-08-14T20:26:31.892Z,99789.06
2022-08-14T20:29:31.333Z,99628.44
2022-08-14T20:32:32.520Z,99705.81
2022-08-14T20:35:41.879Z,99747.13
2022-08-14T20:38:33.785Z,99342.06
2022-08-14T20:41:23.339Z,99582.56
2022-08-14T20:44:29.769Z,99721.66
2022-08-14T20:47:17.409Z,99769.41
2022-08-14T20:50:28.398Z,99739.13
2022-08-14T20:53:35.563Z,99266.47
2022-08-14T20:56:28.543Z,99526.47
2022-08-14T20:59:23.973Z,99600.50
2022-08-14T21:02:50.195Z,99425.34
2022-08-14T21:05:38.759Z,99402.78
2022-08-14T21:08:37.444Z,99766.47
2022-08-14T21:11:28.104Z,99775.19
2022-08-14T21:14:28.495Z,99779.31
2022-08-14T21:17:17.014Z,99775.72
2022-08-14T21:20:26.067Z,99777.94
2022-08-14T21:23:14.208Z,99775.91
2022-08-14T21:26:03.620Z,99632.50
2022-08-14T21:28:53.007Z,99614.25
2022-08-14T21:31:42.239Z,99705.31
2022-08-14T21:34:32.450Z,99700.88
2022-08-14T21:37:20.331Z,99719.03
2022-08-14T21:40:39.769Z,99688.84
2022-08-14T21:43:23.391Z,99579.16
2022-08-14T21:46:10.732Z,99737.00
2022-08-14T21:49:01.544Z,99549.34
2022-08-14T21:51:57.208Z,99770.06
2022-08-14T21:54:50.191Z,99780.81
2022-08-14T21:58:46.304Z,99773.69
2022-08-14T22:00:53.029Z,99718.81
2022-08-14T22:03:45.077Z,99771.22
2022-08-14T22:06:42.584Z,99741.19
2022-08-14T22:09:32.567Z,99766.03
2022-08-14T22:12:47.176Z,99773.31
2022-08-14T22:15:16.726Z,99705.94
2022-08-14T22:17:44.686Z,99644.47
2022-08-14T22:21:16.587Z,99764.47
2022-08-14T23:05:38.808Z,99662.31
2022-08-14T23:08:59.555Z,99527.63
2022-08-14T23:10:59.737Z,99673.78
2022-08-14T23:13:26.809Z,99467.56
2022-08-14T23:15:58.274Z,99291.22
2022-08-14T23:18:29.417Z,99752.69
2022-08-14T23:20:57.739Z,99570.28
2022-08-14T23:23:24.878Z,99338.13
2022-08-14T23:26:00.277Z,99425.63
2022-08-14T23:28:32.759Z,99489.53
2022-08-14T23:31:02.879Z,99492.03
2022-08-14T23:33:34.789Z,99770.63
2022-08-14T23:36:04.651Z,99280.13
2022-08-14T23:38:56.863Z,99661.19
2022-08-14T23:41:25.470Z,98967.75
2022-08-14T23:43:55.567Z,99246.94
2022-08-14T23:46:35.315Z,99000.16
2022-08-14T23:49:08.507Z,98951.72
2022-08-14T23:51:39.815Z,99758.19
2022-08-14T23:54:48.044Z,99757.53
2022-08-14T23:57:02.350Z,99171.06
2022-08-14T23:59:32.111Z,99384.56
